createdAt,value
2019-05-19T00:02:18.008Z,9.35
2019-05-19T00:04:46.443Z,9.78
2019-05-19T00:07:15.203Z,9.45
2019-05-19T00:09:43.703Z,8.85
2019-05-19T00:12:12.192Z,9.70
2019-05-19T00:14:40.611Z,9.58
2019-05-19T00:17:09.009Z,10.53
2019-05-19T00:19:37.527Z,10.10
2019-05-19T00:22:05.936Z,9.78
2019-05-19T00:24:34.337Z,9.75
2019-05-19T00:27:02.731Z,9.78
2019-05-19T00:29:31.173Z,10.78
2019-05-19T00:31:59.665Z,9.90
2019-05-19T00:34:28.071Z,10.28
2019-05-19T00:36:56.466Z,10.10
2019-05-19T00:39:25.357Z,9.10
2019-05-19T00:41:53.812Z,9.63
2019-05-19T00:44:22.218Z,10.00
2019-05-19T00:46:50.607Z,8.55
2019-05-19T00:49:19.380Z,49.60
2019-05-19T00:51:47.785Z,40.60
2019-05-19T00:54:16.185Z,56.20
2019-05-19T00:56:45.018Z,39.70
2019-05-19T00:59:14.252Z,34.60
2019-05-19T01:01:43.004Z,34.43
2019-05-19T01:04:11.404Z,24.50
2019-05-19T01:06:39.799Z,20.60
2019-05-19T01:09:08.547Z,18.73
2019-05-19T01:11:37.266Z,19.27
2019-05-19T01:14:05.736Z,15.50
2019-05-19T01:16:34.127Z,13.88
2019-05-19T01:19:02.538Z,13.45
2019-05-19T01:21:31.847Z,14.33
2019-05-19T01:24:00.257Z,14.07
2019-05-19T01:26:28.942Z,12.80
2019-05-19T01:28:57.352Z,12.23
2019-05-19T01:31:25.805Z,13.20
2019-05-19T01:33:54.244Z,13.40
2019-05-19T01:36:22.640Z,14.35
2019-05-19T01:38:51.038Z,13.13
2019-05-19T01:41:19.422Z,12.98
2019-05-19T01:43:47.825Z,13.32
2019-05-19T01:46:16.221Z,13.32
2019-05-19T01:48:44.902Z,13.80
2019-05-19T01:51:13.260Z,14.47
2019-05-19T01:53:41.663Z,13.72
2019-05-19T01:56:10.322Z,17.12
2019-05-19T01:58:38.714Z,17.60
2019-05-19T02:01:07.383Z,17.02
2019-05-19T02:03:35.783Z,14.40
2019-05-19T02:06:04.452Z,15.58
2019-05-19T02:08:32.859Z,14.50
2019-05-19T02:11:01.247Z,14.53
2019-05-19T02:13:29.667Z,13.45
2019-05-19T02:15:58.061Z,13.35
2019-05-19T02:18:26.459Z,14.10
2019-05-19T02:20:54.846Z,13.72
2019-05-19T02:23:23.254Z,15.23
2019-05-19T02:25:51.639Z,15.43
2019-05-19T02:28:20.037Z,15.15
2019-05-19T02:30:48.428Z,13.75
2019-05-19T02:33:16.818Z,13.13
2019-05-19T02:35:45.551Z,13.55
2019-05-19T02:38:13.932Z,12.30
2019-05-19T02:40:45.368Z,12.28
2019-05-19T02:43:15.770Z,14.00
2019-05-19T02:45:45.603Z,13.05
2019-05-19T02:48:14.436Z,13.25
2019-05-19T02:50:52.360Z,12.50
2019-05-19T02:53:17.113Z,13.43
2019-05-19T02:55:46.266Z,15.68
2019-05-19T02:58:14.997Z,16.23
2019-05-19T03:00:43.765Z,13.18
2019-05-19T03:03:12.237Z,12.45
2019-05-19T03:05:40.622Z,12.45
2019-05-19T03:08:09.498Z,13.62
2019-05-19T03:10:38.181Z,13.80
2019-05-19T03:13:06.586Z,12.63
2019-05-19T03:15:35.248Z,12.65
2019-05-19T03:18:03.636Z,12.10
2019-05-19T03:20:32.103Z,11.93
2019-05-19T03:23:00.491Z,12.80
2019-05-19T03:25:29.181Z,13.83
2019-05-19T03:27:57.866Z,14.93
2019-05-19T03:30:28.187Z,12.03
2019-05-19T03:33:01.359Z,11.97
2019-05-19T03:35:29.741Z,12.80
2019-05-19T03:37:58.125Z,15.65
2019-05-19T03:40:26.527Z,14.85
2019-05-19T03:42:54.924Z,13.85
2019-05-19T03:45:23.600Z,13.30
2019-05-19T03:47:52.010Z,14.07
2019-05-19T03:50:20.391Z,15.00
2019-05-19T03:52:49.130Z,13.40
2019-05-19T03:55:17.604Z,12.88
2019-05-19T03:57:45.996Z,13.38
2019-05-19T04:00:14.731Z,12.95
2019-05-19T04:02:43.113Z,13.32
2019-05-19T04:05:11.795Z,14.98
2019-05-19T04:07:40.189Z,15.13
2019-05-19T04:10:09.314Z,14.20
2019-05-19T04:12:37.706Z,13.70
2019-05-19T04:15:06.938Z,16.52
2019-05-19T04:17:35.323Z,13.18
2019-05-19T04:20:04.694Z,13.03
2019-05-19T04:22:33.082Z,12.90
2019-05-19T04:25:01.481Z,13.43
2019-05-19T04:27:29.862Z,11.95
2019-05-19T04:29:58.627Z,20.35
2019-05-19T04:32:27.023Z,14.80
2019-05-19T04:34:55.412Z,12.75
2019-05-19T04:37:23.825Z,12.58
2019-05-19T04:39:52.548Z,11.57
2019-05-19T04:42:21.252Z,12.45
2019-05-19T04:44:49.634Z,12.90
2019-05-19T04:47:18.017Z,12.35
2019-05-19T04:49:46.416Z,12.45
2019-05-19T04:52:14.810Z,14.63
2019-05-19T04:54:43.202Z,12.93
2019-05-19T04:57:11.912Z,12.88
2019-05-19T04:59:40.330Z,13.22
2019-05-19T05:02:08.740Z,13.72
2019-05-19T05:04:37.140Z,14.35
2019-05-19T05:07:05.547Z,13.60
2019-05-19T05:09:33.945Z,13.88
2019-05-19T05:12:02.595Z,12.23
2019-05-19T05:14:30.986Z,15.93
2019-05-19T05:16:59.662Z,14.38
2019-05-19T05:19:28.052Z,12.78
2019-05-19T05:21:56.723Z,11.70
2019-05-19T05:24:28.469Z,12.53
2019-05-19T05:26:55.556Z,11.12
2019-05-19T05:29:23.953Z,10.23
2019-05-19T05:31:52.362Z,9.55
2019-05-19T05:34:21.081Z,9.68
2019-05-19T05:36:49.485Z,8.83
2019-05-19T05:39:17.896Z,7.92
2019-05-19T05:41:46.629Z,9.00
2019-05-19T05:44:15.023Z,8.68
2019-05-19T05:46:43.418Z,8.33
2019-05-19T05:49:12.080Z,10.58
2019-05-19T05:51:40.778Z,11.85
2019-05-19T05:54:09.456Z,11.28
2019-05-19T05:56:37.861Z,10.65
2019-05-19T05:59:06.518Z,10.43
2019-05-19T06:01:35.208Z,10.48
2019-05-19T06:04:03.829Z,9.95
2019-05-19T06:06:32.232Z,8.88
2019-05-19T06:09:00.956Z,10.30
2019-05-19T06:11:29.645Z,8.45
2019-05-19T06:13:58.330Z,9.10
2019-05-19T06:16:27.017Z,8.23
2019-05-19T06:18:56.859Z,8.50
2019-05-19T06:21:25.388Z,8.28
2019-05-19T06:23:53.777Z,8.48
2019-05-19T06:26:22.183Z,8.35
2019-05-19T06:28:50.857Z,7.33
2019-05-19T06:31:19.291Z,7.25
2019-05-19T06:33:47.679Z,6.72
2019-05-19T06:36:16.081Z,6.75
2019-05-19T06:38:44.803Z,6.95
2019-05-19T06:41:13.443Z,6.90
2019-05-19T06:43:42.156Z,7.92
2019-05-19T06:46:10.549Z,6.90
2019-05-19T06:48:38.934Z,6.60
2019-05-19T06:51:07.336Z,5.90
2019-05-19T06:53:35.737Z,5.62
2019-05-19T06:56:04.106Z,5.08
2019-05-19T06:58:32.490Z,5.33
2019-05-19T07:01:00.887Z,5.25
2019-05-19T07:03:29.630Z,5.25
2019-05-19T07:05:58.307Z,4.95
2019-05-19T07:08:26.672Z,4.30
2019-05-19T07:10:55.073Z,4.08
2019-05-19T07:13:23.461Z,4.40
2019-05-19T07:15:52.118Z,3.77
2019-05-19T07:18:20.796Z,2.70
2019-05-19T07:20:49.195Z,1.60
2019-05-19T07:23:27.818Z,1.40
2019-05-19T07:25:47.689Z,1.25
2019-05-19T07:28:16.075Z,1.27
2019-05-19T07:30:45.055Z,1.30
2019-05-19T07:33:13.449Z,1.17
2019-05-19T07:35:42.112Z,1.15
2019-05-19T07:38:10.510Z,1.27
2019-05-19T07:40:38.894Z,1.35
2019-05-19T07:43:07.562Z,1.50
2019-05-19T07:45:35.936Z,1.10
2019-05-19T07:48:04.331Z,1.20
2019-05-19T07:50:32.717Z,1.45
2019-05-19T07:53:01.131Z,1.47
2019-05-19T07:55:29.501Z,1.15
2019-05-19T07:57:58.327Z,1.30
2019-05-19T08:00:26.714Z,1.57
2019-05-19T08:02:55.174Z,1.30
2019-05-19T08:05:23.903Z,1.35
2019-05-19T08:07:52.306Z,1.60
2019-05-19T08:10:20.969Z,1.70
2019-05-19T08:12:49.370Z,1.95
2019-05-19T08:15:18.243Z,2.30
2019-05-19T08:17:46.666Z,2.25
2019-05-19T08:20:15.990Z,2.55
2019-05-19T08:22:44.385Z,2.62
2019-05-19T08:25:13.008Z,2.92
2019-05-19T08:27:41.391Z,2.65
2019-05-19T08:30:10.328Z,2.80
2019-05-19T08:32:39.045Z,3.05
2019-05-19T08:35:08.241Z,2.50
2019-05-19T08:37:36.650Z,2.58
2019-05-19T08:40:05.885Z,2.75
2019-05-19T08:42:34.608Z,3.12
2019-05-19T08:45:03.174Z,2.50
2019-05-19T08:47:31.569Z,2.58
2019-05-19T08:50:00.260Z,2.67
2019-05-19T08:52:28.663Z,3.50
2019-05-19T08:54:57.036Z,3.45
2019-05-19T08:57:25.520Z,3.47
2019-05-19T08:59:54.286Z,3.35
2019-05-19T09:02:22.682Z,3.42
2019-05-19T09:04:51.064Z,3.58
2019-05-19T09:07:19.455Z,3.92
2019-05-19T09:09:48.029Z,3.45
2019-05-19T09:12:17.108Z,3.60
2019-05-19T09:14:45.496Z,3.40
2019-05-19T09:17:14.214Z,3.65
2019-05-19T09:19:42.570Z,3.40
2019-05-19T09:22:11.253Z,3.42
2019-05-19T09:24:39.631Z,3.33
2019-05-19T09:27:08.026Z,3.20
2019-05-19T09:29:36.402Z,3.58
2019-05-19T09:32:04.803Z,3.30
2019-05-19T09:34:33.485Z,3.60
2019-05-19T09:37:01.905Z,3.15
2019-05-19T09:39:30.256Z,3.30
2019-05-19T09:41:58.656Z,3.60
2019-05-19T09:44:27.046Z,3.50
2019-05-19T09:46:55.445Z,3.60
2019-05-19T09:49:34.353Z,4.03
2019-05-19T09:52:04.981Z,4.40
2019-05-19T09:54:44.577Z,3.85
2019-05-19T09:57:03.848Z,4.20
2019-05-19T09:59:32.222Z,4.10
2019-05-19T10:02:00.609Z,4.12
2019-05-19T10:04:29.755Z,3.65
2019-05-19T10:06:58.153Z,4.42
2019-05-19T10:09:39.009Z,3.83
2019-05-19T10:12:08.828Z,3.77
2019-05-19T10:14:37.518Z,4.12
2019-05-19T10:17:05.925Z,4.70
2019-05-19T10:19:34.585Z,4.60
2019-05-19T10:22:02.981Z,4.75
2019-05-19T10:24:31.370Z,3.92
2019-05-19T10:26:59.763Z,4.08
2019-05-19T10:29:28.294Z,4.30
2019-05-19T10:31:56.720Z,3.90
2019-05-19T10:34:25.103Z,3.98
2019-05-19T10:36:53.752Z,4.08
2019-05-19T10:39:22.133Z,3.92
2019-05-19T10:41:50.518Z,3.62
2019-05-19T10:44:18.913Z,3.98
2019-05-19T10:46:47.587Z,4.00
2019-05-19T10:49:15.977Z,3.30
2019-05-19T10:51:44.358Z,3.50
2019-05-19T10:54:12.752Z,3.58
2019-05-19T10:56:41.190Z,3.90
2019-05-19T10:59:09.580Z,3.37
2019-05-19T11:01:37.965Z,2.58
2019-05-19T11:04:06.366Z,3.00
2019-05-19T11:06:34.749Z,3.33
2019-05-19T11:09:04.831Z,2.72
2019-05-19T11:11:33.217Z,2.55
2019-05-19T11:14:01.610Z,2.10
2019-05-19T11:16:29.999Z,2.30
2019-05-19T11:18:58.391Z,2.00
2019-05-19T11:21:27.035Z,2.35
2019-05-19T11:23:55.425Z,2.37
2019-05-19T11:26:23.809Z,2.35
2019-05-19T11:28:52.207Z,2.72
2019-05-19T11:31:20.595Z,3.35
2019-05-19T11:33:49.251Z,3.30
2019-05-19T11:36:17.634Z,3.15
2019-05-19T11:38:46.100Z,2.92
2019-05-19T11:41:14.507Z,2.20
2019-05-19T11:43:42.877Z,2.70
2019-05-19T11:46:11.548Z,2.50
2019-05-19T11:48:39.947Z,2.20
2019-05-19T11:51:08.335Z,1.80
2019-05-19T11:53:36.722Z,1.98
2019-05-19T11:56:08.017Z,1.80
2019-05-19T11:58:35.300Z,1.70
2019-05-19T12:01:03.748Z,1.85
2019-05-19T12:03:32.147Z,1.82
2019-05-19T12:06:00.530Z,1.92
2019-05-19T12:08:28.933Z,2.10
2019-05-19T12:10:57.313Z,1.77
2019-05-19T12:13:25.976Z,1.70
2019-05-19T12:15:54.374Z,1.82
2019-05-19T12:18:23.089Z,1.72
2019-05-19T12:20:51.477Z,2.10
2019-05-19T12:23:19.871Z,2.27
2019-05-19T12:25:49.794Z,2.52
2019-05-19T12:28:18.189Z,2.22
2019-05-19T12:30:46.885Z,2.45
2019-05-19T12:33:15.296Z,2.08
2019-05-19T12:35:44.064Z,2.08
2019-05-19T12:38:12.449Z,1.90
2019-05-19T12:40:42.012Z,2.17
2019-05-19T12:43:10.399Z,1.90
2019-05-19T12:45:38.862Z,2.33
2019-05-19T12:48:07.414Z,2.15
2019-05-19T12:50:36.069Z,2.00
2019-05-19T12:53:04.451Z,2.10
2019-05-19T12:55:32.844Z,2.20
2019-05-19T12:58:01.224Z,2.17
2019-05-19T13:00:29.639Z,2.10
2019-05-19T13:02:58.276Z,1.82
2019-05-19T13:05:26.967Z,2.00
2019-05-19T13:07:55.347Z,2.37
2019-05-19T13:10:23.807Z,2.30
2019-05-19T13:12:52.215Z,2.40
2019-05-19T13:15:20.672Z,2.55
2019-05-19T13:17:49.051Z,2.15
2019-05-19T13:20:17.678Z,2.25
2019-05-19T13:22:46.334Z,2.65
2019-05-19T13:25:14.793Z,2.02
2019-05-19T13:27:43.177Z,2.42
2019-05-19T13:30:11.985Z,2.70
2019-05-19T13:32:40.368Z,2.15
2019-05-19T13:35:09.358Z,2.22
2019-05-19T13:37:37.743Z,2.95
2019-05-19T13:40:06.786Z,2.72
2019-05-19T13:42:35.513Z,2.70
2019-05-19T13:45:08.396Z,3.02
2019-05-19T13:47:37.087Z,3.40
2019-05-19T13:50:08.755Z,2.90
2019-05-19T13:52:37.212Z,3.00
2019-05-19T13:55:07.178Z,2.70
2019-05-19T13:57:35.844Z,2.20
2019-05-19T14:00:05.739Z,2.17
2019-05-19T14:02:34.127Z,3.00
2019-05-19T14:05:02.539Z,2.80
2019-05-19T14:07:30.910Z,3.25
2019-05-19T14:09:59.305Z,3.40
2019-05-19T14:12:27.687Z,3.35
2019-05-19T14:14:56.092Z,3.83
2019-05-19T14:17:24.481Z,3.10
2019-05-19T14:19:53.241Z,3.10
2019-05-19T14:22:21.635Z,3.10
2019-05-19T14:24:50.013Z,3.52
2019-05-19T14:27:29.370Z,3.33
2019-05-19T14:29:48.790Z,3.17
2019-05-19T14:32:17.179Z,3.72
2019-05-19T14:34:45.579Z,3.40
2019-05-19T14:37:14.233Z,3.80
2019-05-19T14:39:42.624Z,4.30
2019-05-19T14:42:12.670Z,4.22
2019-05-19T14:44:41.045Z,3.70
2019-05-19T14:47:09.801Z,2.58
2019-05-19T14:49:38.193Z,3.77
2019-05-19T14:52:06.585Z,4.37
2019-05-19T14:54:34.964Z,3.50
2019-05-19T14:57:03.360Z,2.40
2019-05-19T14:59:31.749Z,2.10
2019-05-19T15:02:00.136Z,2.30
2019-05-19T15:04:28.525Z,1.65
2019-05-19T15:06:57.247Z,1.50
2019-05-19T15:09:25.653Z,1.25
2019-05-19T15:11:54.322Z,1.85
2019-05-19T15:14:22.699Z,2.83
2019-05-19T15:16:51.094Z,2.45
2019-05-19T15:19:19.482Z,1.75
2019-05-19T15:21:47.883Z,1.80
2019-05-19T15:24:16.266Z,1.40
2019-05-19T15:26:44.674Z,1.30
2019-05-19T15:29:13.064Z,1.10
2019-05-19T15:31:41.464Z,1.30
2019-05-19T15:34:09.862Z,4.15
2019-05-19T15:36:38.258Z,3.80
2019-05-19T15:39:06.790Z,3.30
2019-05-19T15:41:35.276Z,5.50
2019-05-19T15:44:03.610Z,5.72
2019-05-19T15:46:32.004Z,3.50
2019-05-19T15:49:00.394Z,2.87
2019-05-19T15:51:34.787Z,2.30
2019-05-19T15:53:58.909Z,2.10
2019-05-19T15:56:28.059Z,1.62
2019-05-19T15:58:56.443Z,1.80
2019-05-19T16:01:24.897Z,1.85
2019-05-19T16:03:53.298Z,1.70
2019-05-19T16:06:22.031Z,1.55
2019-05-19T16:08:50.719Z,1.57
2019-05-19T16:11:19.114Z,1.98
2019-05-19T16:13:47.789Z,3.85
2019-05-19T16:16:16.193Z,2.52
2019-05-19T16:18:44.574Z,2.12
2019-05-19T16:21:12.971Z,2.37
2019-05-19T16:23:41.347Z,3.20
2019-05-19T16:26:09.741Z,2.45
2019-05-19T16:28:38.125Z,2.37
2019-05-19T16:31:06.861Z,2.87
2019-05-19T16:33:35.249Z,3.30
2019-05-19T16:36:03.636Z,3.00
2019-05-19T16:38:32.031Z,2.12
2019-05-19T16:41:00.413Z,3.25
2019-05-19T16:43:28.807Z,2.62
2019-05-19T16:45:57.192Z,2.10
2019-05-19T16:48:26.128Z,2.27
2019-05-19T16:50:54.522Z,1.50
2019-05-19T16:53:22.919Z,1.30
2019-05-19T16:55:51.318Z,1.20
2019-05-19T16:58:21.489Z,1.27
2019-05-19T17:00:49.894Z,1.40
2019-05-19T17:03:18.280Z,1.20
2019-05-19T17:05:47.044Z,1.57
2019-05-19T17:08:15.433Z,2.27
2019-05-19T17:10:43.841Z,1.30
2019-05-19T17:13:12.241Z,0.98
2019-05-19T17:15:40.623Z,1.10
2019-05-19T17:18:09.338Z,1.20
2019-05-19T17:20:37.737Z,0.90
2019-05-19T17:23:06.157Z,1.20
2019-05-19T17:25:34.543Z,1.02
2019-05-19T17:28:03.262Z,1.30
2019-05-19T17:30:31.659Z,1.10
2019-05-19T17:33:00.074Z,1.10
2019-05-19T17:35:28.458Z,1.60
2019-05-19T17:37:56.851Z,1.50
2019-05-19T17:40:25.571Z,1.20
2019-05-19T17:42:54.255Z,1.10
2019-05-19T17:45:23.699Z,1.12
2019-05-19T17:47:53.658Z,1.15
2019-05-19T17:50:33.367Z,1.52
2019-05-19T17:53:02.536Z,1.02
2019-05-19T17:55:33.018Z,1.30
2019-05-19T17:58:02.155Z,1.60
2019-05-19T18:00:39.333Z,1.62
2019-05-19T18:03:09.120Z,1.60
2019-05-19T18:05:37.741Z,1.60
2019-05-19T18:08:06.509Z,2.35
2019-05-19T18:10:35.055Z,2.60
2019-05-19T18:13:03.793Z,2.62
2019-05-19T18:15:32.178Z,2.60
2019-05-19T18:18:00.962Z,4.80
2019-05-19T18:20:29.661Z,2.20
2019-05-19T18:22:58.177Z,1.90
2019-05-19T18:25:26.610Z,1.52
2019-05-19T18:27:54.981Z,1.90
2019-05-19T18:30:25.524Z,1.47
2019-05-19T18:32:53.913Z,1.40
2019-05-19T18:35:22.313Z,1.40
2019-05-19T18:37:50.693Z,1.92
2019-05-19T18:40:19.565Z,2.42
2019-05-19T18:42:47.953Z,2.87
2019-05-19T18:45:16.697Z,3.00
2019-05-19T18:47:45.456Z,2.12
2019-05-19T18:50:14.290Z,1.50
2019-05-19T18:52:42.978Z,0.90
2019-05-19T18:55:11.719Z,1.25
2019-05-19T18:57:40.119Z,1.60
2019-05-19T19:00:09.062Z,1.30
2019-05-19T19:02:37.518Z,1.20
2019-05-19T19:05:07.236Z,1.95
2019-05-19T19:07:55.400Z,1.82
2019-05-19T19:10:25.433Z,1.57
2019-05-19T19:12:54.082Z,1.50
2019-05-19T19:15:22.720Z,1.60
2019-05-19T19:17:51.119Z,2.12
2019-05-19T19:20:19.699Z,2.05
2019-05-19T19:22:48.146Z,2.50
2019-05-19T19:25:16.538Z,2.58
2019-05-19T19:27:44.931Z,2.70
2019-05-19T19:30:13.864Z,2.60
2019-05-19T19:32:42.281Z,3.00
2019-05-19T19:35:10.806Z,2.80
2019-05-19T19:37:39.193Z,3.20
2019-05-19T19:40:08.156Z,3.45
2019-05-19T19:42:36.891Z,4.00
2019-05-19T19:45:07.013Z,4.00
2019-05-19T19:47:35.398Z,4.35
2019-05-19T19:50:05.774Z,4.20
2019-05-19T19:52:34.227Z,3.50
2019-05-19T19:55:02.626Z,3.05
2019-05-19T19:57:31.254Z,3.47
2019-05-19T19:59:59.657Z,3.40
2019-05-19T20:02:28.150Z,3.50
2019-05-19T20:04:56.548Z,3.65
2019-05-19T20:07:24.940Z,3.90
2019-05-19T20:09:53.670Z,3.80
2019-05-19T20:12:22.055Z,4.55
2019-05-19T20:14:50.445Z,4.25
2019-05-19T20:17:18.833Z,3.20
2019-05-19T20:19:47.237Z,3.35
2019-05-19T20:22:15.614Z,3.15
2019-05-19T20:24:43.999Z,2.60
2019-05-19T20:27:12.500Z,2.83
2019-05-19T20:29:41.211Z,3.12
2019-05-19T20:32:09.608Z,3.20
2019-05-19T20:34:38.005Z,3.25
2019-05-19T20:37:06.660Z,2.98
2019-05-19T20:39:35.055Z,3.77
2019-05-19T20:42:03.518Z,3.85
2019-05-19T20:44:32.229Z,3.90
2019-05-19T20:47:00.617Z,4.87
2019-05-19T20:49:29.003Z,3.95
2019-05-19T20:51:57.392Z,4.10
2019-05-19T20:54:25.786Z,5.28
2019-05-19T20:56:54.173Z,4.67
2019-05-19T20:59:22.558Z,5.50
2019-05-19T21:01:50.942Z,4.37
2019-05-19T21:04:19.346Z,4.62
2019-05-19T21:06:48.084Z,4.42
2019-05-19T21:09:16.774Z,4.87
2019-05-19T21:11:45.471Z,5.42
2019-05-19T21:14:13.847Z,5.33
2019-05-19T21:16:42.236Z,6.45
2019-05-19T21:19:10.617Z,6.47
2019-05-19T21:21:39.011Z,4.60
2019-05-19T21:24:07.658Z,4.83
2019-05-19T21:26:36.305Z,4.37
2019-05-19T21:29:04.759Z,4.70
2019-05-19T21:31:33.397Z,5.00
2019-05-19T21:34:01.786Z,5.33
2019-05-19T21:36:30.183Z,4.95
2019-05-19T21:38:58.577Z,5.65
2019-05-19T21:41:27.238Z,5.53
2019-05-19T21:43:55.618Z,5.33
2019-05-19T21:46:24.015Z,4.75
2019-05-19T21:48:52.406Z,4.80
2019-05-19T21:51:20.813Z,4.65
2019-05-19T21:53:49.368Z,4.90
2019-05-19T21:56:17.757Z,4.75
2019-05-19T21:58:46.141Z,4.55
2019-05-19T22:01:22.921Z,4.53
2019-05-19T22:03:45.020Z,4.83
2019-05-19T22:06:13.644Z,4.90
2019-05-19T22:08:42.036Z,5.62
2019-05-19T22:11:10.417Z,5.03
2019-05-19T22:13:38.814Z,5.05
2019-05-19T22:16:12.741Z,5.65
2019-05-19T22:18:37.296Z,4.70
2019-05-19T22:21:05.926Z,5.50
2019-05-19T22:23:34.571Z,5.80
2019-05-19T22:26:03.129Z,5.03
2019-05-19T22:28:31.834Z,5.17
2019-05-19T22:31:00.220Z,5.28
2019-05-19T22:33:28.607Z,4.97
2019-05-19T22:35:57.006Z,4.75
2019-05-19T22:38:25.396Z,5.25
2019-05-19T22:40:53.778Z,4.70
2019-05-19T22:43:22.170Z,4.58
2019-05-19T22:45:50.550Z,4.97
2019-05-19T22:48:18.941Z,5.17
2019-05-19T22:50:47.324Z,5.30
2019-05-19T22:53:15.711Z,5.30
2019-05-19T22:55:44.364Z,5.78
2019-05-19T22:58:12.755Z,5.17
2019-05-19T23:00:41.379Z,5.15
2019-05-19T23:03:09.762Z,5.00
2019-05-19T23:05:38.233Z,4.75
2019-05-19T23:08:06.972Z,4.85
2019-05-19T23:10:35.359Z,5.45
2019-05-19T23:13:03.990Z,5.00
2019-05-19T23:15:32.619Z,5.10
2019-05-19T23:18:01.020Z,4.97
2019-05-19T23:20:29.689Z,5.33
2019-05-19T23:22:58.079Z,6.85
2019-05-19T23:25:26.752Z,6.05
2019-05-19T23:27:55.156Z,6.55
2019-05-19T23:30:23.767Z,5.42
2019-05-19T23:32:52.148Z,6.03
2019-05-19T23:35:20.542Z,5.40
2019-05-19T23:37:48.927Z,5.15
2019-05-19T23:40:17.326Z,5.28
2019-05-19T23:42:45.714Z,5.10
2019-05-19T23:45:14.714Z,5.55
2019-05-19T23:47:43.088Z,5.40
2019-05-19T23:50:11.977Z,5.75
2019-05-19T23:52:40.389Z,6.00
2019-05-19T23:55:10.223Z,6.42
2019-05-19T23:57:38.854Z,5.90
